Time,TemperatureF,DewpointF,PressureIn,WindDirection,WindDirectionDegrees,WindSpeedMPH,WindSpeedGustMPH,Humidity,HourlyPrecipIn,Conditions,Clouds,dailyrainin,SoftwareType,DateUTC
2013-03-06 00:04:00,33.6,24.9,29.94,WNW,292,0.0,0.0,70,0.00,CLR,,0.00,WeatherDisplay:10.37,2013-03-06 05:04:00,
2013-03-06 00:10:00,33.6,25.2,29.94,WNW,292,0.0,0.0,71,0.00,CLR,,0.00,WeatherDisplay:10.37,2013-03-06 05:10:00,
2013-03-06 00:14:00,33.6,25.2,29.92,WNW,292,0.0,0.0,71,0.00,CLR,,0.00,WeatherDisplay:10.37,2013-03-06 05:14:00,
2013-03-06 00:20:00,33.7,25.3,29.91,WNW,292,0.0,0.0,71,0.00,CLR,,0.00,WeatherDisplay:10.37,2013-03-06 05:20:00,
2013-03-06 00:24:00,33.8,25.4,29.91,WNW,292,0.0,0.0,71,0.00,CLR,,0.00,WeatherDisplay:10.37,2013-03-06 05:24:00,
2013-03-06 00:29:00,33.8,25.4,29.91,WNW,292,0.0,0.0,71,0.00,CLR,,0.00,WeatherDisplay:10.37,2013-03-06 05:29:00,
2013-03-06 00:34:00,33.8,25.4,29.91,WNW,292,0.0,0.0,71,0.00,CLR,,0.00,WeatherDisplay:10.37,2013-03-06 05:34:00,
2013-03-06 00:40:00,33.8,25.7,29.91,WNW,292,0.0,0.0,72,0.00,CLR,,0.00,WeatherDisplay:10.37,2013-03-06 05:40:00,
2013-03-06 00:44:00,33.6,25.6,29.91,WNW,292,0.0,0.0,72,0.00,CLR,,0.00,WeatherDisplay:10.37,2013-03-06 05:44:00,
2013-03-06 00:50:00,33.4,25.3,29.91,WNW,292,0.0,0.0,72,0.00,CLR,,0.00,WeatherDisplay:10.37,2013-03-06 05:50:00,
2013-03-06 00:54:00,33.3,25.2,29.91,WNW,292,0.0,0.0,72,0.00,CLR,,0.00,WeatherDisplay:10.37,2013-03-06 05:54:00,
2013-03-06 00:59:00,33.1,25.0,29.91,WNW,292,0.0,0.0,72,0.00,CLR,,0.00,WeatherDisplay:10.37,2013-03-06 05:59:00,
2013-03-06 01:04:00,32.9,24.9,29.91,WNW,292,0.0,0.0,72,0.00,CLR,,0.00,WeatherDisplay:10.37,2013-03-06 06:04:00,
2013-03-06 01:10:00,32.7,25.0,29.91,WNW,292,0.0,0.0,73,0.00,CLR,,0.00,WeatherDisplay:10.37,2013-03-06 06:10:00,
2013-03-06 01:14:00,32.5,24.8,29.91,WNW,292,0.0,0.0,73,0.00,CLR,,0.00,WeatherDisplay:10.37,2013-03-06 06:14:00,
2013-03-06 01:20:00,32.4,24.7,29.91,WNW,292,0.0,0.0,73,0.00,CLR,,0.00,WeatherDisplay:10.37,2013-03-06 06:20:00,
2013-03-06 01:24:00,32.2,24.5,29.91,WNW,292,0.0,0.0,73,0.00,CLR,,0.00,WeatherDisplay:10.37,2013-03-06 06:24:00,
2013-03-06 01:30:00,32.0,24.3,29.91,WNW,292,0.0,0.0,73,0.00,CLR,,0.00,WeatherDisplay:10.37,2013-03-06 06:30:00,
2013-03-06 01:34:00,31.8,24.2,29.91,WNW,292,0.0,0.0,73,0.00,CLR,,0.00,WeatherDisplay:10.37,2013-03-06 06:34:00,
2013-03-06 01:39:00,31.6,24.3,29.91,WNW,292,0.0,0.0,74,0.00,CLR,,0.00,WeatherDisplay:10.37,2013-03-06 06:39:00,
2013-03-06 01:44:00,31.6,23.9,29.91,WNW,292,0.0,0.0,73,0.00,CLR,,0.00,WeatherDisplay:10.37,2013-03-06 06:44:00,
2013-03-06 01:49:00,31.4,23.8,29.91,WNW,292,0.0,0.0,73,0.00,CLR,,0.00,WeatherDisplay:10.37,2013-03-06 06:49:00,
2013-03-06 01:54:00,31.3,24.0,29.94,WNW,292,0.0,0.0,74,0.00,CLR,,0.00,WeatherDisplay:10.37,2013-03-06 06:54:00,
2013-03-06 01:59:00,31.5,24.1,29.91,WNW,292,0.0,0.0,74,0.00,CLR,,0.00,WeatherDisplay:10.37,2013-03-06 06:59:00,
2013-03-06 02:04:00,31.6,24.3,29.91,WNW,292,0.0,0.0,74,0.00,CLR,,0.00,WeatherDisplay:10.37,2013-03-06 07:04:00,
2013-03-06 02:09:00,31.6,24.3,29.91,WNW,292,0.0,0.0,74,0.00,CLR,,0.00,WeatherDisplay:10.37,2013-03-06 07:09:00,
2013-03-06 02:14:00,31.6,24.3,29.91,WNW,292,0.0,0.0,74,0.00,CLR,,0.00,WeatherDisplay:10.37,2013-03-06 07:14:00,
2013-03-06 02:20:00,31.6,24.6,29.91,WNW,292,0.0,0.0,75,0.00,CLR,,0.00,WeatherDisplay:10.37,2013-03-06 07:20:00,
2013-03-06 02:24:00,31.8,24.8,29.91,WNW,292,0.0,0.0,75,0.00,CLR,,0.00,WeatherDisplay:10.37,2013-03-06 07:24:00,
2013-03-06 02:30:00,31.8,24.8,29.91,WNW,292,0.0,0.0,75,0.00,CLR,,0.00,WeatherDisplay:10.37,2013-03-06 07:30:00,
2013-03-06 02:34:00,32.0,25.0,29.91,WNW,292,0.0,0.0,75,0.00,CLR,,0.00,WeatherDisplay:10.37,2013-03-06 07:34:00,
2013-03-06 02:40:00,32.0,25.0,29.91,WNW,292,0.0,0.0,75,0.00,CLR,,0.00,WeatherDisplay:10.37,2013-03-06 07:40:00,
2013-03-06 02:44:00,32.2,25.1,29.91,WNW,292,0.0,0.0,75,0.00,CLR,,0.00,WeatherDisplay:10.37,2013-03-06 07:44:00,
2013-03-06 02:49:00,32.2,25.5,29.91,WNW,292,0.0,0.0,76,0.00,CLR,,0.00,WeatherDisplay:10.37,2013-03-06 07:49:00,
2013-03-06 02:54:00,32.3,25.6,29.91,WNW,292,0.0,0.0,76,0.00,CLR,,0.00,WeatherDisplay:10.37,2013-03-06 07:54:00,
2013-03-06 02:59:00,32.4,25.6,29.91,WNW,292,0.0,0.0,76,0.00,CLR,,0.00,WeatherDisplay:10.37,2013-03-06 07:59:00,
2013-03-06 03:04:00,32.5,25.8,29.91,WNW,292,0.0,0.0,76,0.00,CLR,,0.00,WeatherDisplay:10.37,2013-03-06 08:04:00,
2013-03-06 03:10:00,32.5,25.8,29.91,WNW,292,0.0,0.0,76,0.00,CLR,,0.00,WeatherDisplay:10.37,2013-03-06 08:10:00,
2013-03-06 03:15:00,32.7,26.0,29.91,WNW,292,0.0,0.0,76,0.00,CLR,,0.00,WeatherDisplay:10.37,2013-03-06 08:15:00,
2013-03-06 03:20:00,33.1,26.6,29.91,WNW,292,0.0,0.0,77,0.00,CLR,,0.00,WeatherDisplay:10.37,2013-03-06 08:20:00,
2013-03-06 03:24:00,33.2,26.8,29.91,WNW,292,0.0,0.0,77,0.00,CLR,,0.00,WeatherDisplay:10.37,2013-03-06 08:24:00,
2013-03-06 03:30:00,33.8,27.4,29.91,WNW,292,0.0,0.0,77,0.00,CLR,,0.00,WeatherDisplay:10.37,2013-03-06 08:30:00,
2013-03-06 03:34:00,34.0,27.5,29.91,WNW,292,0.0,0.0,77,0.00,CLR,,0.00,WeatherDisplay:10.37,2013-03-06 08:34:00,
2013-03-06 03:39:00,34.0,27.2,29.91,WNW,292,0.0,0.0,76,0.00,CLR,,0.00,WeatherDisplay:10.37,2013-03-06 08:39:00,
2013-03-06 03:44:00,34.5,27.7,29.91,WNW,292,0.0,0.0,76,0.00,CLR,,0.00,WeatherDisplay:10.37,2013-03-06 08:44:00,
2013-03-06 03:50:00,34.9,28.1,29.91,WNW,292,0.0,0.0,76,0.00,CLR,,0.00,WeatherDisplay:10.37,2013-03-06 08:50:00,
2013-03-06 03:59:00,34.7,27.9,29.91,WNW,292,0.0,0.0,76,0.00,CLR,,0.00,WeatherDisplay:10.37,2013-03-06 08:59:00,
2013-03-06 04:04:00,34.7,28.2,29.91,WNW,292,0.0,0.0,77,0.00,CLR,,0.00,WeatherDisplay:10.37,2013-03-06 09:04:00,
2013-03-06 04:09:00,34.9,28.4,29.91,WNW,292,0.0,0.0,77,0.00,CLR,,0.00,WeatherDisplay:10.37,2013-03-06 09:09:00,
2013-03-06 04:14:00,34.7,28.2,29.91,WNW,292,0.0,0.0,77,0.00,CLR,,0.00,WeatherDisplay:10.37,2013-03-06 09:14:00,
2013-03-06 04:19:00,34.9,28.4,29.91,WNW,292,0.0,0.0,77,0.00,CLR,,0.00,WeatherDisplay:10.37,2013-03-06 09:19:00,
2013-03-06 04:24:00,34.9,28.4,29.91,WNW,292,0.0,0.0,77,0.00,CLR,,0.00,WeatherDisplay:10.37,2013-03-06 09:24:00,
2013-03-06 04:30:00,34.9,28.4,29.91,WNW,292,0.0,0.0,77,0.00,CLR,,0.00,WeatherDisplay:10.37,2013-03-06 09:30:00,
2013-03-06 04:40:00,35.2,28.8,29.91,WNW,292,0.0,0.0,77,0.00,CLR,,0.00,WeatherDisplay:10.37,2013-03-06 09:40:00,
2013-03-06 04:44:00,35.4,28.9,29.91,WNW,292,0.0,0.0,77,0.00,CLR,,0.00,WeatherDisplay:10.37,2013-03-06 09:44:00,
2013-03-06 04:49:00,35.4,28.9,29.91,WNW,292,0.0,0.0,77,0.00,CLR,,0.00,WeatherDisplay:10.37,2013-03-06 09:49:00,
2013-03-06 04:54:00,35.4,28.9,29.91,WNW,292,0.0,0.0,77,0.00,CLR,,0.00,WeatherDisplay:10.37,2013-03-06 09:54:00,
2013-03-06 04:59:00,35.6,29.1,29.91,WNW,292,0.0,0.0,77,0.00,CLR,,0.00,WeatherDisplay:10.37,2013-03-06 09:59:00,
2013-03-06 05:04:00,35.6,29.1,29.91,WNW,292,0.0,0.0,77,0.00,CLR,,0.00,WeatherDisplay:10.37,2013-03-06 10:04:00,
2013-03-06 05:10:00,35.6,29.1,29.91,WNW,292,0.0,0.0,77,0.00,CLR,,0.00,WeatherDisplay:10.37,2013-03-06 10:10:00,
2013-03-06 05:20:00,35.8,29.3,29.91,WNW,292,0.0,0.0,77,0.00,CLR,,0.00,WeatherDisplay:10.37,2013-03-06 10:20:00,
2013-03-06 05:25:00,35.8,29.6,29.91,WNW,292,0.0,0.0,78,0.00,CLR,,0.00,WeatherDisplay:10.37,2013-03-06 10:25:00,
2013-03-06 05:34:00,35.8,29.6,29.91,WNW,292,0.0,0.0,78,0.00,CLR,,0.00,WeatherDisplay:10.37,2013-03-06 10:34:00,
2013-03-06 05:39:00,35.8,29.6,29.91,WNW,292,0.0,0.0,78,0.00,CLR,,0.00,WeatherDisplay:10.37,2013-03-06 10:39:00,
2013-03-06 05:44:00,36.0,29.8,29.91,WNW,292,0.0,0.0,78,0.00,CLR,,0.00,WeatherDisplay:10.37,2013-03-06 10:44:00,
2013-03-06 05:49:00,36.0,29.8,29.91,WNW,292,0.0,0.0,78,0.00,CLR,,0.00,WeatherDisplay:10.37,2013-03-06 10:49:00,
2013-03-06 05:54:00,35.8,29.6,29.91,WNW,292,0.0,0.0,78,0.00,CLR,,0.00,WeatherDisplay:10.37,2013-03-06 10:54:00,
2013-03-06 05:59:00,35.8,29.6,29.91,WNW,292,0.0,0.0,78,0.00,CLR,,0.00,WeatherDisplay:10.37,2013-03-06 10:59:00,
2013-03-06 06:04:00,36.0,29.8,29.91,WNW,292,0.0,0.0,78,0.00,CLR,,0.00,WeatherDisplay:10.37,2013-03-06 11:04:00,
2013-03-06 06:10:00,36.1,29.9,29.91,WNW,292,0.0,0.0,78,0.00,CLR,,0.00,WeatherDisplay:10.37,2013-03-06 11:10:00,
2013-03-06 06:14:00,36.1,29.9,29.91,WNW,292,0.0,0.0,78,0.00,CLR,,0.00,WeatherDisplay:10.37,2013-03-06 11:14:00,
2013-03-06 06:19:00,36.1,29.9,29.91,WNW,292,0.0,0.0,78,0.00,CLR,,0.00,WeatherDisplay:10.37,2013-03-06 11:19:00,
2013-03-06 06:24:00,36.1,29.9,29.91,WNW,292,0.0,0.0,78,0.00,CLR,,0.00,WeatherDisplay:10.37,2013-03-06 11:24:00,
2013-03-06 06:29:00,36.1,29.9,29.91,WNW,292,0.0,0.0,78,0.00,CLR,,0.00,WeatherDisplay:10.37,2013-03-06 11:29:00,
2013-03-06 06:34:00,36.1,29.9,29.91,WNW,292,0.0,0.0,78,0.00,CLR,,0.00,WeatherDisplay:10.37,2013-03-06 11:34:00,
2013-03-06 06:39:00,36.1,29.9,29.91,WNW,292,0.0,0.0,78,0.00,CLR,,0.00,WeatherDisplay:10.37,2013-03-06 11:39:00,
2013-03-06 06:44:00,36.3,30.1,29.91,WNW,292,0.0,0.0,78,0.00,CLR,,0.00,WeatherDisplay:10.37,2013-03-06 11:44:00,
2013-03-06 06:49:00,36.5,30.3,29.91,WNW,292,0.0,0.0,78,0.00,CLR,,0.00,WeatherDisplay:10.37,2013-03-06 11:49:00,
2013-03-06 06:54:00,36.5,30.3,29.91,WNW,292,0.0,0.0,78,0.00,CLR,,0.00,WeatherDisplay:10.37,2013-03-06 11:54:00,
2013-03-06 06:59:00,36.5,30.6,29.91,WNW,292,0.0,0.0,79,0.00,CLR,,0.00,WeatherDisplay:10.37,2013-03-06 11:59:00,
2013-03-06 07:05:00,36.7,30.8,29.91,WNW,292,0.0,0.0,79,0.00,CLR,,0.00,WeatherDisplay:10.37,2013-03-06 12:05:00,
2013-03-06 07:14:00,36.8,30.9,29.91,WNW,292,0.0,0.0,79,0.00,CLR,,0.00,WeatherDisplay:10.37,2013-03-06 12:14:00,
2013-03-06 07:19:00,36.9,31.3,29.91,WNW,292,0.0,0.0,80,0.00,CLR,,0.00,WeatherDisplay:10.37,2013-03-06 12:19:00,
2013-03-06 07:24:00,36.9,31.3,29.91,WNW,292,0.0,0.0,80,0.00,CLR,,0.00,WeatherDisplay:10.37,2013-03-06 12:24:00,
2013-03-06 07:29:00,36.9,31.3,29.88,WNW,292,0.0,0.0,80,0.00,CLR,,0.00,WeatherDisplay:10.37,2013-03-06 12:29:00,
2013-03-06 07:34:00,36.9,31.3,29.88,WNW,292,0.0,0.0,80,0.00,CLR,,0.00,WeatherDisplay:10.37,2013-03-06 12:34:00,
2013-03-06 07:39:00,37.0,31.4,29.88,WNW,292,0.0,0.0,80,0.00,CLR,,0.00,WeatherDisplay:10.37,2013-03-06 12:39:00,
2013-03-06 07:44:00,37.0,31.4,29.88,WNW,292,0.0,0.0,80,0.00,CLR,,0.00,WeatherDisplay:10.37,2013-03-06 12:44:00,
2013-03-06 07:50:00,37.0,31.8,29.88,WNW,292,0.0,0.0,81,0.00,CLR,,0.00,WeatherDisplay:10.37,2013-03-06 12:50:00,
2013-03-06 07:55:00,37.3,32.0,29.88,WNW,292,0.0,0.0,81,0.00,CLR,,0.00,WeatherDisplay:10.37,2013-03-06 12:55:00,
2013-03-06 07:59:00,37.4,31.8,29.91,WNW,292,0.0,0.0,80,0.00,CLR,,0.00,WeatherDisplay:10.37,2013-03-06 12:59:00,
2013-03-06 08:04:00,37.6,32.0,29.91,WNW,292,0.0,0.0,80,0.00,CLR,,0.00,WeatherDisplay:10.37,2013-03-06 13:04:00,
2013-03-06 08:09:00,37.9,32.0,29.91,WNW,292,0.0,0.0,79,0.00,CLR,,0.00,WeatherDisplay:10.37,2013-03-06 13:09:00,
2013-03-06 08:14:00,38.1,32.2,29.91,WNW,292,0.0,0.0,79,0.00,CLR,,0.00,WeatherDisplay:10.37,2013-03-06 13:14:00,
2013-03-06 08:19:00,38.3,32.0,29.91,WNW,292,0.0,0.0,78,0.00,CLR,,0.00,WeatherDisplay:10.37,2013-03-06 13:19:00,
2013-03-06 08:25:00,38.3,32.0,29.91,WNW,292,0.0,0.0,78,0.00,CLR,,0.00,WeatherDisplay:10.37,2013-03-06 13:25:00,
2013-03-06 08:34:00,38.5,32.2,29.91,WNW,292,0.0,0.0,78,0.00,CLR,,0.00,WeatherDisplay:10.37,2013-03-06 13:34:00,
2013-03-06 08:40:00,38.5,32.2,29.91,WNW,292,0.0,0.0,78,0.00,CLR,,0.00,WeatherDisplay:10.37,2013-03-06 13:40:00,
2013-03-06 08:44:00,38.7,32.1,29.91,WNW,292,0.0,0.0,77,0.00,CLR,,0.00,WeatherDisplay:10.37,2013-03-06 13:44:00,
2013-03-06 08:49:00,38.8,32.2,29.91,WNW,292,0.0,0.0,77,0.00,CLR,,0.00,WeatherDisplay:10.37,2013-03-06 13:49:00,
2013-03-06 08:54:00,38.9,32.3,29.91,WNW,292,0.0,0.0,77,0.00,CLR,,0.00,WeatherDisplay:10.37,2013-03-06 13:54:00,
2013-03-06 08:59:00,39.2,32.3,29.89,WNW,292,0.0,0.0,76,0.00,CLR,,0.00,WeatherDisplay:10.37,2013-03-06 13:59:00,
2013-03-06 09:04:00,39.4,32.4,29.88,WNW,292,0.0,0.0,76,0.00,CLR,,0.00,WeatherDisplay:10.37,2013-03-06 14:04:00,
2013-03-06 09:10:00,39.7,32.5,29.88,WNW,292,0.0,0.0,75,0.00,CLR,,0.00,WeatherDisplay:10.37,2013-03-06 14:10:00,
2013-03-06 09:14:00,39.9,32.6,29.88,WNW,292,0.0,0.0,75,0.00,CLR,,0.00,WeatherDisplay:10.37,2013-03-06 14:14:00,
2013-03-06 09:20:00,39.9,32.6,29.88,WNW,292,0.0,0.0,75,0.00,CLR,,0.00,WeatherDisplay:10.37,2013-03-06 14:20:00,
2013-03-06 09:24:00,39.9,32.6,29.88,WNW,292,0.0,0.0,75,0.00,CLR,,0.00,WeatherDisplay:10.37,2013-03-06 14:24:00,
2013-03-06 09:29:00,39.9,32.6,29.91,WNW,292,0.0,0.0,75,0.00,CLR,,0.00,WeatherDisplay:10.37,2013-03-06 14:29:00,
2013-03-06 09:34:00,39.9,33.0,29.91,WNW,292,0.0,0.0,76,0.00,CLR,,0.00,WeatherDisplay:10.37,2013-03-06 14:34:00,
2013-03-06 09:40:00,39.9,33.0,29.91,WNW,292,0.0,0.0,76,0.00,CLR,,0.00,WeatherDisplay:10.37,2013-03-06 14:40:00,
2013-03-06 09:44:00,40.1,33.1,29.88,WNW,292,0.0,0.0,76,0.00,CLR,,0.00,WeatherDisplay:10.37,2013-03-06 14:44:00,
2013-03-06 09:49:00,39.9,33.0,29.88,WNW,292,0.0,0.0,76,0.00,CLR,,0.00,WeatherDisplay:10.37,2013-03-06 14:49:00,
2013-03-06 09:55:00,40.0,33.3,29.88,WNW,292,0.0,0.0,77,0.00,CLR,,0.00,WeatherDisplay:10.37,2013-03-06 14:55:00,
2013-03-06 10:04:00,40.1,33.5,29.88,WNW,292,0.0,0.0,77,0.00,CLR,,0.00,WeatherDisplay:10.37,2013-03-06 15:04:00,
2013-03-06 10:09:00,39.9,33.6,29.88,WNW,292,0.0,0.0,78,0.00,CLR,,0.00,WeatherDisplay:10.37,2013-03-06 15:09:00,
2013-03-06 10:14:00,39.7,33.8,29.88,WNW,292,0.0,0.0,79,0.00,CLR,,0.00,WeatherDisplay:10.37,2013-03-06 15:14:00,
2013-03-06 10:20:00,39.7,34.1,29.88,WNW,292,0.0,0.0,80,0.00,CLR,,0.00,WeatherDisplay:10.37,2013-03-06 15:20:00,
2013-03-06 10:24:00,39.8,34.1,29.88,WNW,292,0.0,0.0,80,0.00,CLR,,0.00,WeatherDisplay:10.37,2013-03-06 15:24:00,
2013-03-06 10:29:00,40.1,34.7,29.88,WNW,292,0.0,0.0,81,0.00,CLR,,0.00,WeatherDisplay:10.37,2013-03-06 15:29:00,
2013-03-06 10:34:00,40.3,34.9,29.88,WNW,292,0.0,0.0,81,0.00,CLR,,0.00,WeatherDisplay:10.37,2013-03-06 15:34:00,
2013-03-06 10:39:00,40.3,34.9,29.88,WNW,292,0.0,0.0,81,0.00,CLR,,0.00,WeatherDisplay:10.37,2013-03-06 15:39:00,
2013-03-06 10:44:00,40.6,34.9,29.88,WNW,292,0.0,0.0,80,0.00,CLR,,0.00,WeatherDisplay:10.37,2013-03-06 15:44:00,
2013-03-06 10:50:00,41.1,35.4,29.88,WNW,292,0.0,0.0,80,0.00,CLR,,0.00,WeatherDisplay:10.37,2013-03-06 15:50:00,
2013-03-06 10:54:00,41.5,35.2,29.88,WNW,292,0.0,0.0,78,0.00,CLR,,0.00,WeatherDisplay:10.37,2013-03-06 15:54:00,
2013-03-06 10:59:00,41.5,34.5,29.88,WNW,292,0.0,0.0,76,0.00,CLR,,0.00,WeatherDisplay:10.37,2013-03-06 15:59:00,
2013-03-06 11:04:00,41.7,34.7,29.88,WNW,292,0.0,0.0,76,0.00,CLR,,0.00,WeatherDisplay:10.37,2013-03-06 16:04:00,
2013-03-06 11:09:00,41.4,34.0,29.88,WNW,292,0.0,0.0,75,0.00,CLR,,0.00,WeatherDisplay:10.37,2013-03-06 16:09:00,
2013-03-06 11:14:00,41.2,33.9,29.88,WNW,292,0.0,0.0,75,0.00,CLR,,0.00,WeatherDisplay:10.37,2013-03-06 16:14:00,
2013-03-06 11:19:00,41.1,34.1,29.88,WNW,292,0.0,0.0,76,0.04,RA,,0.04,WeatherDisplay:10.37,2013-03-06 16:19:00,
2013-03-06 11:24:00,40.6,33.7,29.88,WNW,292,0.0,0.0,76,0.00,RA,,0.04,WeatherDisplay:10.37,2013-03-06 16:24:00,
2013-03-06 11:30:00,40.8,33.8,29.88,WNW,292,0.0,0.0,76,0.00,CLR,,0.04,WeatherDisplay:10.37,2013-03-06 16:30:00,
2013-03-06 11:34:00,41.0,33.7,29.88,WNW,292,0.0,0.0,75,0.00,CLR,,0.04,WeatherDisplay:10.37,2013-03-06 16:34:00,
2013-03-06 11:39:00,41.5,33.9,29.88,WNW,292,0.0,0.0,74,0.00,CLR,,0.04,WeatherDisplay:10.37,2013-03-06 16:39:00,
2013-03-06 11:44:00,42.4,34.3,29.88,WNW,292,0.0,0.0,73,0.00,CLR,,0.04,WeatherDisplay:10.37,2013-03-06 16:44:00,
2013-03-06 11:50:00,42.1,33.7,29.88,WNW,292,0.0,0.0,72,0.00,CLR,,0.04,WeatherDisplay:10.37,2013-03-06 16:50:00,
2013-03-06 11:59:00,41.5,33.2,29.88,WNW,292,0.0,0.0,72,0.00,CLR,,0.04,WeatherDisplay:10.37,2013-03-06 16:59:00,
2013-03-06 12:04:00,41.7,33.0,29.88,WNW,292,0.0,0.0,71,0.00,CLR,,0.04,WeatherDisplay:10.37,2013-03-06 17:04:00,
2013-03-06 12:09:00,43.0,34.2,29.88,WNW,292,0.0,0.0,71,0.00,CLR,,0.04,WeatherDisplay:10.37,2013-03-06 17:09:00,
2013-03-06 12:14:00,43.2,34.0,29.88,WNW,292,0.0,0.0,70,0.00,CLR,,0.04,WeatherDisplay:10.37,2013-03-06 17:14:00,
2013-03-06 12:19:00,42.9,33.5,29.88,WNW,292,0.0,0.0,69,0.00,CLR,,0.04,WeatherDisplay:10.37,2013-03-06 17:19:00,
2013-03-06 12:24:00,42.6,33.2,29.88,WNW,292,0.0,0.0,69,0.00,CLR,,0.04,WeatherDisplay:10.37,2013-03-06 17:24:00,
2013-03-06 12:30:00,42.6,33.2,29.88,WNW,292,0.0,0.0,69,0.00,CLR,,0.04,WeatherDisplay:10.37,2013-03-06 17:30:00,
2013-03-06 12:34:00,42.3,32.8,29.88,WNW,292,0.0,0.0,69,0.00,CLR,,0.04,WeatherDisplay:10.37,2013-03-06 17:34:00,
2013-03-06 12:39:00,42.4,32.9,29.88,WNW,292,0.0,0.0,69,0.00,CLR,,0.04,WeatherDisplay:10.37,2013-03-06 17:39:00,
2013-03-06 12:44:00,42.8,33.3,29.85,WNW,292,0.0,0.0,69,0.00,CLR,,0.04,WeatherDisplay:10.37,2013-03-06 17:44:00,
2013-03-06 12:49:00,42.4,33.0,29.85,WNW,292,0.0,0.0,69,0.00,CLR,,0.04,WeatherDisplay:10.37,2013-03-06 17:49:00,
2013-03-06 12:54:00,42.6,32.8,29.85,WNW,292,0.0,0.0,68,0.00,CLR,,0.04,WeatherDisplay:10.37,2013-03-06 17:54:00,
2013-03-06 12:59:00,43.0,32.8,29.85,WNW,292,0.0,0.0,67,0.00,CLR,,0.04,WeatherDisplay:10.37,2013-03-06 17:59:00,
2013-03-06 13:04:00,43.0,32.4,29.85,WNW,292,0.0,0.0,66,0.00,CLR,,0.04,WeatherDisplay:10.37,2013-03-06 18:04:00,
2013-03-06 13:09:00,43.3,33.1,29.85,WNW,292,0.0,0.0,67,0.00,CLR,,0.04,WeatherDisplay:10.37,2013-03-06 18:09:00,
2013-03-06 13:14:00,43.6,33.0,29.85,WNW,292,0.0,0.0,66,0.00,CLR,,0.04,WeatherDisplay:10.37,2013-03-06 18:14:00,
2013-03-06 13:19:00,43.7,33.1,29.85,WNW,292,0.0,0.0,66,0.00,CLR,,0.04,WeatherDisplay:10.37,2013-03-06 18:19:00,
2013-03-06 13:24:00,43.2,32.2,29.85,WNW,292,0.0,0.0,65,0.00,CLR,,0.04,WeatherDisplay:10.37,2013-03-06 18:24:00,
2013-03-06 13:29:00,43.0,32.0,29.83,WNW,292,0.0,0.0,65,0.00,CLR,,0.04,WeatherDisplay:10.37,2013-03-06 18:29:00,
2013-03-06 13:34:00,42.3,31.3,29.83,WNW,292,0.0,0.0,65,0.00,CLR,,0.04,WeatherDisplay:10.37,2013-03-06 18:34:00,
2013-03-06 13:40:00,42.6,32.0,29.83,WNW,292,0.0,0.0,66,0.00,CLR,,0.04,WeatherDisplay:10.37,2013-03-06 18:40:00,
2013-03-06 13:49:00,43.2,33.0,29.83,WNW,292,0.0,0.0,67,0.00,CLR,,0.04,WeatherDisplay:10.37,2013-03-06 18:49:00,
2013-03-06 13:54:00,43.5,32.9,29.83,WNW,292,0.0,0.0,66,0.00,CLR,,0.04,WeatherDisplay:10.37,2013-03-06 18:54:00,
2013-03-06 13:59:00,43.7,32.7,29.83,WNW,292,0.0,0.0,65,0.00,CLR,,0.04,WeatherDisplay:10.37,2013-03-06 18:59:00,
2013-03-06 14:04:00,43.7,31.9,29.83,WNW,292,0.0,0.0,63,0.00,CLR,,0.04,WeatherDisplay:10.37,2013-03-06 19:04:00,
2013-03-06 14:09:00,43.0,31.7,29.83,WNW,292,0.0,0.0,64,0.00,CLR,,0.04,WeatherDisplay:10.37,2013-03-06 19:09:00,
2013-03-06 14:14:00,42.1,31.2,29.83,WNW,292,0.0,0.0,65,0.00,CLR,,0.04,WeatherDisplay:10.37,2013-03-06 19:14:00,
2013-03-06 14:19:00,42.1,31.5,29.83,WNW,292,0.0,0.0,66,0.00,CLR,,0.04,WeatherDisplay:10.37,2013-03-06 19:19:00,
2013-03-06 14:24:00,41.7,31.6,29.83,WNW,292,0.0,0.0,67,0.00,CLR,,0.04,WeatherDisplay:10.37,2013-03-06 19:24:00,
2013-03-06 14:30:00,42.1,32.3,29.85,WNW,292,0.0,0.0,68,0.00,CLR,,0.04,WeatherDisplay:10.37,2013-03-06 19:30:00,
2013-03-06 14:34:00,41.9,32.1,29.85,WNW,292,0.0,0.0,68,0.00,CLR,,0.04,WeatherDisplay:10.37,2013-03-06 19:34:00,
2013-03-06 14:39:00,41.8,32.0,29.85,WNW,292,0.0,0.0,68,0.00,CLR,,0.04,WeatherDisplay:10.37,2013-03-06 19:39:00,
2013-03-06 14:44:00,41.4,31.9,29.85,WNW,292,0.0,0.0,69,0.00,CLR,,0.04,WeatherDisplay:10.37,2013-03-06 19:44:00,
2013-03-06 14:49:00,41.2,31.8,29.85,WNW,292,0.0,0.0,69,0.00,CLR,,0.04,WeatherDisplay:10.37,2013-03-06 19:49:00,
2013-03-06 14:54:00,41.2,31.8,29.85,WNW,292,0.0,0.0,69,0.00,CLR,,0.04,WeatherDisplay:10.37,2013-03-06 19:54:00,
2013-03-06 14:59:00,40.6,31.6,29.83,WNW,292,0.0,0.0,70,0.00,CLR,,0.04,WeatherDisplay:10.37,2013-03-06 19:59:00,
2013-03-06 15:04:00,40.8,32.1,29.83,WNW,292,0.0,0.0,71,0.00,CLR,,0.04,WeatherDisplay:10.37,2013-03-06 20:04:00,
2013-03-06 15:09:00,41.0,32.3,29.83,WNW,292,0.0,0.0,71,0.00,CLR,,0.04,WeatherDisplay:10.37,2013-03-06 20:09:00,
2013-03-06 15:14:00,41.4,32.3,29.83,WNW,292,0.0,0.0,70,0.00,CLR,,0.04,WeatherDisplay:10.37,2013-03-06 20:14:00,
2013-03-06 15:20:00,41.5,32.5,29.83,WNW,292,0.0,0.0,70,0.00,CLR,,0.04,WeatherDisplay:10.37,2013-03-06 20:20:00,
2013-03-06 15:25:00,41.5,31.8,29.83,WNW,292,0.0,0.0,68,0.00,CLR,,0.04,WeatherDisplay:10.37,2013-03-06 20:25:00,
2013-03-06 15:30:00,41.4,31.6,29.83,WNW,292,0.0,0.0,68,0.00,CLR,,0.04,WeatherDisplay:10.37,2013-03-06 20:30:00,
2013-03-06 15:35:00,41.4,31.6,29.83,WNW,292,0.0,0.0,68,0.00,CLR,,0.04,WeatherDisplay:10.37,2013-03-06 20:35:00,
2013-03-06 15:40:00,40.6,31.3,29.83,WNW,292,0.0,0.0,69,0.00,CLR,,0.04,WeatherDisplay:10.37,2013-03-06 20:40:00,
2013-03-06 15:49:00,40.6,31.3,29.83,WNW,292,0.0,0.0,69,0.00,CLR,,0.04,WeatherDisplay:10.37,2013-03-06 20:49:00,
2013-03-06 15:54:00,40.5,31.1,29.83,WNW,292,0.0,0.0,69,0.00,CLR,,0.04,WeatherDisplay:10.37,2013-03-06 20:54:00,
2013-03-06 15:59:00,40.5,31.1,29.85,WNW,292,0.0,0.0,69,0.00,CLR,,0.04,WeatherDisplay:10.37,2013-03-06 20:59:00,
2013-03-06 16:04:00,40.5,31.1,29.85,WNW,292,0.0,0.0,69,0.00,CLR,,0.04,WeatherDisplay:10.37,2013-03-06 21:04:00,
2013-03-06 16:09:00,40.4,31.0,29.85,WNW,292,0.0,0.0,69,0.00,CLR,,0.04,WeatherDisplay:10.37,2013-03-06 21:09:00,
2013-03-06 16:14:00,40.0,30.7,29.85,WNW,292,0.0,0.0,69,0.00,CLR,,0.04,WeatherDisplay:10.37,2013-03-06 21:14:00,
2013-03-06 16:19:00,39.7,30.7,29.85,WNW,292,0.0,0.0,70,0.00,CLR,,0.04,WeatherDisplay:10.37,2013-03-06 21:19:00,
2013-03-06 16:24:00,39.2,30.6,29.85,WNW,292,0.0,0.0,71,0.00,CLR,,0.04,WeatherDisplay:10.37,2013-03-06 21:24:00,
2013-03-06 16:29:00,39.2,30.6,29.85,WNW,292,0.0,0.0,71,0.00,CLR,,0.04,WeatherDisplay:10.37,2013-03-06 21:29:00,
2013-03-06 16:34:00,38.8,30.9,29.85,WNW,292,0.0,0.0,73,0.00,CLR,,0.04,WeatherDisplay:10.37,2013-03-06 21:34:00,
2013-03-06 16:40:00,38.6,31.0,29.85,WNW,292,0.0,0.0,74,0.00,CLR,,0.04,WeatherDisplay:10.37,2013-03-06 21:40:00,
2013-03-06 16:49:00,38.5,31.2,29.85,WNW,292,0.0,0.0,75,0.00,CLR,,0.04,WeatherDisplay:10.37,2013-03-06 21:49:00,
2013-03-06 16:54:00,38.3,31.1,29.85,WNW,292,0.0,0.0,75,0.00,CLR,,0.04,WeatherDisplay:10.37,2013-03-06 21:54:00,
2013-03-06 16:59:00,38.1,30.9,29.83,WNW,292,0.0,0.0,75,0.00,CLR,,0.04,WeatherDisplay:10.37,2013-03-06 21:59:00,
2013-03-06 17:04:00,37.9,30.7,29.83,WNW,292,0.0,0.0,75,0.00,CLR,,0.04,WeatherDisplay:10.37,2013-03-06 22:04:00,
2013-03-06 17:10:00,37.8,30.5,29.83,WNW,292,0.0,0.0,75,0.00,CLR,,0.04,WeatherDisplay:10.37,2013-03-06 22:10:00,
2013-03-06 17:20:00,37.6,30.4,29.83,WNW,292,0.0,0.0,75,0.00,CLR,,0.04,WeatherDisplay:10.37,2013-03-06 22:20:00,
2013-03-06 17:24:00,37.4,30.2,29.83,WNW,292,0.0,0.0,75,0.00,CLR,,0.04,WeatherDisplay:10.37,2013-03-06 22:24:00,
2013-03-06 17:29:00,37.6,30.4,29.85,WNW,292,0.0,0.0,75,0.00,CLR,,0.04,WeatherDisplay:10.37,2013-03-06 22:29:00,
2013-03-06 17:34:00,37.6,30.4,29.85,WNW,292,0.0,0.0,75,0.00,CLR,,0.04,WeatherDisplay:10.37,2013-03-06 22:34:00,
2013-03-06 17:39:00,37.4,30.2,29.85,WNW,292,0.0,0.0,75,0.00,CLR,,0.04,WeatherDisplay:10.37,2013-03-06 22:39:00,
2013-03-06 17:44:00,37.2,30.3,29.85,WNW,292,0.0,0.0,76,0.00,CLR,,0.04,WeatherDisplay:10.37,2013-03-06 22:44:00,
2013-03-06 17:49:00,37.2,30.3,29.85,WNW,292,0.0,0.0,76,0.00,CLR,,0.04,WeatherDisplay:10.37,2013-03-06 22:49:00,
2013-03-06 17:54:00,37.0,30.2,29.85,WNW,292,0.0,0.0,76,0.00,CLR,,0.04,WeatherDisplay:10.37,2013-03-06 22:54:00,
2013-03-06 17:59:00,37.0,29.8,29.85,WNW,292,0.0,0.0,75,0.00,CLR,,0.04,WeatherDisplay:10.37,2013-03-06 22:59:00,
2013-03-06 18:04:00,37.0,30.2,29.85,WNW,292,0.0,0.0,76,0.00,CLR,,0.04,WeatherDisplay:10.37,2013-03-06 23:04:00,
2013-03-06 18:10:00,36.9,30.0,29.85,WNW,292,0.0,0.0,76,0.00,CLR,,0.04,WeatherDisplay:10.37,2013-03-06 23:10:00,
2013-03-06 18:20:00,36.9,29.7,29.85,WNW,292,0.0,0.0,75,0.00,CLR,,0.04,WeatherDisplay:10.37,2013-03-06 23:20:00,
2013-03-06 18:25:00,36.9,29.7,29.85,WNW,292,0.0,0.0,75,0.00,CLR,,0.04,WeatherDisplay:10.37,2013-03-06 23:25:00,
2013-03-06 18:29:00,36.7,29.5,29.85,WNW,292,0.0,0.0,75,0.00,CLR,,0.04,WeatherDisplay:10.37,2013-03-06 23:29:00,
2013-03-06 18:34:00,36.7,29.5,29.85,WNW,292,0.0,0.0,75,0.00,CLR,,0.04,WeatherDisplay:10.37,2013-03-06 23:34:00,
2013-03-06 18:40:00,36.7,29.5,29.85,WNW,292,0.0,0.0,75,0.00,CLR,,0.04,WeatherDisplay:10.37,2013-03-06 23:40:00,
2013-03-06 18:49:00,36.7,29.5,29.85,WNW,292,0.0,0.0,75,0.00,CLR,,0.04,WeatherDisplay:10.37,2013-03-06 23:49:00,
2013-03-06 18:54:00,36.7,29.2,29.85,WNW,292,0.0,0.0,74,0.00,CLR,,0.04,WeatherDisplay:10.37,2013-03-06 23:54:00,
2013-03-06 18:59:00,36.7,29.2,29.85,WNW,292,0.0,0.0,74,0.00,CLR,,0.04,WeatherDisplay:10.37,2013-03-06 23:59:00,
2013-03-06 19:04:00,36.9,29.3,29.85,WNW,292,0.0,0.0,74,0.00,CLR,,0.04,WeatherDisplay:10.37,2013-03-07 00:04:00,
2013-03-06 19:09:00,36.9,29.3,29.85,WNW,292,0.0,0.0,74,0.00,CLR,,0.04,WeatherDisplay:10.37,2013-03-07 00:09:00,
2013-03-06 19:14:00,36.7,29.2,29.85,WNW,292,0.0,0.0,74,0.00,CLR,,0.04,WeatherDisplay:10.37,2013-03-07 00:14:00,
2013-03-06 19:19:00,36.7,29.2,29.85,WNW,292,0.0,0.0,74,0.00,CLR,,0.04,WeatherDisplay:10.37,2013-03-07 00:19:00,
2013-03-06 19:24:00,36.7,29.5,29.85,WNW,292,0.0,0.0,75,0.00,CLR,,0.04,WeatherDisplay:10.37,2013-03-07 00:24:00,
2013-03-06 19:29:00,36.7,29.5,29.85,WNW,292,0.0,0.0,75,0.00,CLR,,0.04,WeatherDisplay:10.37,2013-03-07 00:29:00,
2013-03-06 19:34:00,36.7,29.5,29.85,WNW,292,0.0,0.0,75,0.00,CLR,,0.04,WeatherDisplay:10.37,2013-03-07 00:34:00,
2013-03-06 19:39:00,36.7,29.5,29.85,WNW,292,0.0,0.0,75,0.00,CLR,,0.04,WeatherDisplay:10.37,2013-03-07 00:39:00,
2013-03-06 19:44:00,36.7,29.5,29.85,WNW,292,0.0,0.0,75,0.00,CLR,,0.04,WeatherDisplay:10.37,2013-03-07 00:44:00,
2013-03-06 19:49:00,36.5,29.3,29.85,WNW,292,0.0,0.0,75,0.00,CLR,,0.04,WeatherDisplay:10.37,2013-03-07 00:49:00,
2013-03-06 19:54:00,36.5,29.3,29.85,WNW,292,0.0,0.0,75,0.00,CLR,,0.04,WeatherDisplay:10.37,2013-03-07 00:54:00,
2013-03-06 19:59:00,36.5,29.3,29.85,WNW,292,0.0,0.0,75,0.00,CLR,,0.04,WeatherDisplay:10.37,2013-03-07 00:59:00,
2013-03-06 20:05:00,36.5,29.0,29.85,WNW,292,0.0,0.0,74,0.00,CLR,,0.04,WeatherDisplay:10.37,2013-03-07 01:05:00,
2013-03-06 20:14:00,36.5,29.0,29.85,WNW,292,0.0,0.0,74,0.00,CLR,,0.04,WeatherDisplay:10.37,2013-03-07 01:14:00,
2013-03-06 20:19:00,36.5,29.0,29.85,WNW,292,0.0,0.0,74,0.00,CLR,,0.04,WeatherDisplay:10.37,2013-03-07 01:19:00,
2013-03-06 20:24:00,36.3,28.8,29.85,WNW,292,0.0,0.0,74,0.00,CLR,,0.04,WeatherDisplay:10.37,2013-03-07 01:24:00,
2013-03-06 20:30:00,36.5,29.0,29.85,WNW,292,0.0,0.0,74,0.00,CLR,,0.04,WeatherDisplay:10.37,2013-03-07 01:30:00,
2013-03-06 20:39:00,36.4,28.9,29.85,WNW,292,0.0,0.0,74,0.00,CLR,,0.04,WeatherDisplay:10.37,2013-03-07 01:39:00,
2013-03-06 20:44:00,36.3,28.8,29.85,WNW,292,0.0,0.0,74,0.00,CLR,,0.04,WeatherDisplay:10.37,2013-03-07 01:44:00,
2013-03-06 20:49:00,36.3,28.8,29.85,WNW,292,0.0,0.0,74,0.00,CLR,,0.04,WeatherDisplay:10.37,2013-03-07 01:49:00,
2013-03-06 20:54:00,36.3,28.8,29.85,WNW,292,0.0,0.0,74,0.00,CLR,,0.04,WeatherDisplay:10.37,2013-03-07 01:54:00,
2013-03-06 20:59:00,36.5,29.0,29.85,WNW,292,0.0,0.0,74,0.00,CLR,,0.04,WeatherDisplay:10.37,2013-03-07 01:59:00,
2013-03-06 21:04:00,36.5,29.0,29.85,WNW,292,0.0,0.0,74,0.00,CLR,,0.04,WeatherDisplay:10.37,2013-03-07 02:04:00,
2013-03-06 21:09:00,36.5,29.0,29.85,WNW,292,0.0,0.0,74,0.00,CLR,,0.04,WeatherDisplay:10.37,2013-03-07 02:09:00,
2013-03-06 21:14:00,36.5,28.7,29.85,WNW,292,0.0,0.0,73,0.00,CLR,,0.04,WeatherDisplay:10.37,2013-03-07 02:14:00,
2013-03-06 21:19:00,36.5,29.0,29.85,WNW,292,0.0,0.0,74,0.00,CLR,,0.04,WeatherDisplay:10.37,2013-03-07 02:19:00,
2013-03-06 21:24:00,36.5,29.0,29.85,WNW,292,0.0,0.0,74,0.00,CLR,,0.04,WeatherDisplay:10.37,2013-03-07 02:24:00,
2013-03-06 21:29:00,36.3,28.8,29.85,WNW,292,0.0,0.0,74,0.00,CLR,,0.04,WeatherDisplay:10.37,2013-03-07 02:29:00,
2013-03-06 21:34:00,36.3,28.8,29.85,WNW,292,0.0,0.0,74,0.00,CLR,,0.04,WeatherDisplay:10.37,2013-03-07 02:34:00,
2013-03-06 21:39:00,36.3,28.8,29.85,WNW,292,0.0,0.0,74,0.00,CLR,,0.04,WeatherDisplay:10.37,2013-03-07 02:39:00,
2013-03-06 21:44:00,36.3,28.8,29.85,WNW,292,0.0,0.0,74,0.00,CLR,,0.04,WeatherDisplay:10.37,2013-03-07 02:44:00,
2013-03-06 21:49:00,36.3,28.8,29.85,WNW,292,0.0,0.0,74,0.00,CLR,,0.04,WeatherDisplay:10.37,2013-03-07 02:49:00,
2013-03-06 21:54:00,36.3,28.8,29.85,WNW,292,0.0,0.0,74,0.00,CLR,,0.04,WeatherDisplay:10.37,2013-03-07 02:54:00,
2013-03-06 21:59:00,36.5,28.6,29.85,WNW,292,0.0,0.0,73,0.00,CLR,,0.04,WeatherDisplay:10.37,2013-03-07 02:59:00,
2013-03-06 22:04:00,36.5,28.7,29.85,WNW,292,0.0,0.0,73,0.00,CLR,,0.04,WeatherDisplay:10.37,2013-03-07 03:04:00,
2013-03-06 22:10:00,36.5,28.7,29.85,WNW,292,0.0,0.0,73,0.00,CLR,,0.04,WeatherDisplay:10.37,2013-03-07 03:10:00,
2013-03-06 22:14:00,36.5,28.7,29.85,WNW,292,0.0,0.0,73,0.00,CLR,,0.04,WeatherDisplay:10.37,2013-03-07 03:14:00,
2013-03-06 22:19:00,36.5,28.7,29.85,WNW,292,0.0,0.0,73,0.00,CLR,,0.04,WeatherDisplay:10.37,2013-03-07 03:19:00,
2013-03-06 22:24:00,36.7,28.8,29.85,WNW,292,0.0,0.0,73,0.00,CLR,,0.04,WeatherDisplay:10.37,2013-03-07 03:24:00,
2013-03-06 22:29:00,36.7,28.5,29.85,WNW,292,0.0,0.0,72,0.00,CLR,,0.04,WeatherDisplay:10.37,2013-03-07 03:29:00,
2013-03-06 22:34:00,36.7,28.5,29.85,WNW,292,0.0,0.0,72,0.00,CLR,,0.04,WeatherDisplay:10.37,2013-03-07 03:34:00,
2013-03-06 22:39:00,36.7,28.5,29.85,WNW,292,0.0,0.0,72,0.00,CLR,,0.04,WeatherDisplay:10.37,2013-03-07 03:39:00,
2013-03-06 22:44:00,36.5,28.3,29.85,WNW,292,0.0,0.0,72,0.00,CLR,,0.04,WeatherDisplay:10.37,2013-03-07 03:44:00,
2013-03-06 22:49:00,36.5,28.3,29.85,WNW,292,0.0,0.0,72,0.00,CLR,,0.04,WeatherDisplay:10.37,2013-03-07 03:49:00,
2013-03-06 22:54:00,36.5,28.3,29.85,WNW,292,0.0,0.0,72,0.00,CLR,,0.04,WeatherDisplay:10.37,2013-03-07 03:54:00,
2013-03-06 22:59:00,36.3,28.5,29.85,WNW,292,0.0,0.0,73,0.00,CLR,,0.04,WeatherDisplay:10.37,2013-03-07 03:59:00,
2013-03-06 23:04:00,36.3,28.5,29.85,WNW,292,0.0,0.0,73,0.00,CLR,,0.04,WeatherDisplay:10.37,2013-03-07 04:04:00,
2013-03-06 23:09:00,36.3,28.5,29.85,WNW,292,0.0,0.0,73,0.00,CLR,,0.04,WeatherDisplay:10.37,2013-03-07 04:09:00,
2013-03-06 23:14:00,36.1,28.3,29.85,WNW,292,0.0,0.0,73,0.00,CLR,,0.04,WeatherDisplay:10.37,2013-03-07 04:14:00,
2013-03-06 23:20:00,36.0,28.1,29.85,WNW,292,0.0,0.0,73,0.00,CLR,,0.04,WeatherDisplay:10.37,2013-03-07 04:20:00,
2013-03-06 23:29:00,35.8,28.3,29.85,WNW,292,0.0,0.0,74,0.00,CLR,,0.04,WeatherDisplay:10.37,2013-03-07 04:29:00,
2013-03-06 23:34:00,35.8,28.3,29.85,WNW,292,0.0,0.0,74,0.00,CLR,,0.04,WeatherDisplay:10.37,2013-03-07 04:34:00,
2013-03-06 23:40:00,35.8,28.3,29.85,WNW,292,0.0,0.0,74,0.00,CLR,,0.04,WeatherDisplay:10.37,2013-03-07 04:40:00,
2013-03-06 23:44:00,35.6,28.1,29.83,WNW,292,0.0,0.0,74,0.00,CLR,,0.04,WeatherDisplay:10.37,2013-03-07 04:44:00,
2013-03-06 23:49:00,35.6,28.5,29.83,WNW,292,0.0,0.0,75,0.00,CLR,,0.04,WeatherDisplay:10.37,2013-03-07 04:49:00,
2013-03-06 23:54:00,35.6,28.5,29.83,WNW,292,0.0,0.0,75,0.00,CLR,,0.04,WeatherDisplay:10.37,2013-03-07 04:54:00,
2013-03-06 23:59:00,35.4,28.3,29.83,WNW,292,0.0,0.0,75,0.00,RA,,0.00,WeatherDisplay:10.37,2013-03-07 04:59:00,